Time;durP1;ratioP1;P1;durP2;ratioP2;P2;SDS_P1;SDS_P2;PMS_P1;PMS_P2;Temp;Humidity;BMP_temperature;BMP_pressure;BME280_temperature;BME280_humidity;BME280_pressure;Samples;Min_cycle;Max_cycle;Signal;HPM_P1;HPM_P2
2021/01/04 00:02:18;;;;;;;18.02;7.00;;;;;;;-143.98;100.00;68091.63;6222532;23;20032;-83
2021/01/04 00:05:02;;;;;;;13.63;5.93;;;;;;;-143.98;100.00;68091.63;6180865;23;20032;-83
2021/01/04 00:08:21;;;;;;;13.63;5.90;;;;;;;-143.98;100.00;68091.63;6221493;23;20036;-83
2021/01/04 00:11:14;;;;;;;14.65;7.07;;;;;;;-143.98;100.00;68091.63;6220393;23;20032;-83
2021/01/04 00:14:08;;;;;;;16.20;7.35;;;;;;;-143.98;100.00;68091.63;6221430;23;20039;-83
2021/01/04 00:17:00;;;;;;;11.32;5.97;;;;;;;-143.98;100.00;68091.63;6221783;23;20480;-83
2021/01/04 00:19:48;;;;;;;12.77;5.90;;;;;;;-143.98;100.00;68091.63;6220708;23;20350;-83
2021/01/04 00:22:32;;;;;;;11.23;6.25;;;;;;;-143.98;100.00;68091.63;6223321;23;20024;-83
2021/01/04 00:25:12;;;;;;;14.85;6.35;;;;;;;-143.98;100.00;68091.63;6221985;23;20028;-83
2021/01/04 00:27:47;;;;;;;12.32;6.05;;;;;;;-143.98;100.00;68091.63;6221269;23;20108;-83
2021/01/04 00:31:03;;;;;;;11.20;5.65;;;;;;;-143.98;100.00;68091.63;6196761;23;20240;-83
2021/01/04 00:33:32;;;;;;;11.73;6.07;;;;;;;-143.98;100.00;68091.63;6197674;23;20043;-83
2021/01/04 00:36:04;;;;;;;11.70;6.22;;;;;;;-143.98;100.00;68091.63;6223404;23;20029;-83
2021/01/04 00:38:50;;;;;;;13.25;6.18;;;;;;;-143.98;100.00;68091.63;6196137;23;20033;-84
2021/01/04 00:41:24;;;;;;;10.98;5.80;;;;;;;-143.98;100.00;68091.63;6197923;23;20044;-83
2021/01/04 00:44:02;;;;;;;15.82;6.50;;;;;;;-143.98;100.00;68091.63;6223556;23;20362;-83
2021/01/04 00:47:03;;;;;;;13.98;5.72;;;;;;;-143.98;100.00;68091.63;6223324;23;20029;-83
2021/01/04 00:49:33;;;;;;;11.23;6.05;;;;;;;-143.98;100.00;68091.63;6215215;22;20012;-83
2021/01/04 00:52:18;;;;;;;12.48;5.75;;;;;;;-143.98;100.00;68091.63;6243477;22;20068;-84
2021/01/04 00:54:50;;;;;;;12.15;5.60;;;;;;;-143.98;100.00;68091.63;6231052;22;20028;-83
2021/01/04 00:57:48;;;;;;;11.20;5.95;;;;;;;-143.98;100.00;68091.63;6225036;23;20024;-83
2021/01/04 01:00:39;;;;;;;11.90;5.35;;;;;;;-143.98;100.00;68091.63;6160928;23;20029;-83
2021/01/04 01:03:56;;;;;;;9.90;4.97;;;;;;;-143.98;100.00;68091.63;6218061;22;20020;-84
2021/01/04 01:06:47;;;;;;;14.55;5.75;;;;;;;-143.98;100.00;68091.63;6232391;22;20082;-83
2021/01/04 01:09:15;;;;;;;13.60;5.25;;;;;;;-143.98;100.00;68091.63;6222563;23;20025;-83
2021/01/04 01:12:03;;;;;;;14.82;5.53;;;;;;;-143.98;100.00;68091.63;6198167;23;20090;-83
2021/01/04 01:14:45;;;;;;;13.55;5.22;;;;;;;-143.98;100.00;68091.63;6222326;23;20116;-83
2021/01/04 01:17:32;;;;;;;13.43;5.95;;;;;;;-143.98;100.00;68091.63;6222606;23;20541;-83
2021/01/04 01:19:59;;;;;;;14.20;5.40;;;;;;;-143.98;100.00;68091.63;6233369;23;20025;-83
2021/01/04 01:22:45;;;;;;;12.60;5.00;;;;;;;-143.98;100.00;68091.63;6210306;23;20080;-83
2021/01/04 01:25:25;;;;;;;11.25;5.13;;;;;;;-143.98;100.00;68091.63;6202038;23;20025;-83
2021/01/04 01:28:32;;;;;;;11.45;4.85;;;;;;;-143.98;100.00;68091.63;6222103;23;20043;-83
2021/01/04 01:31:17;;;;;;;13.45;5.88;;;;;;;-143.98;100.00;68091.63;6222153;23;20033;-83
2021/01/04 01:33:46;;;;;;;10.02;5.07;;;;;;;-143.98;100.00;68091.63;6222967;23;20028;-83
2021/01/04 01:36:53;;;;;;;10.73;4.70;;;;;;;-143.98;100.00;68091.63;6223177;23;20036;-83
2021/01/04 01:39:51;;;;;;;12.60;5.50;;;;;;;-143.98;100.00;68091.63;6221978;23;20036;-83
2021/01/04 01:42:46;;;;;;;11.00;5.40;;;;;;;-143.98;100.00;68091.63;6196841;23;20048;-83
2021/01/04 01:45:19;;;;;;;9.07;4.80;;;;;;;-143.98;100.00;68091.63;6221875;23;20035;-83
2021/01/04 01:48:02;;;;;;;12.75;4.65;;;;;;;-143.98;100.00;68091.63;6197505;23;20036;-83
2021/01/04 01:50:28;;;;;;;14.80;5.63;;;;;;;-143.98;100.00;68091.63;6222632;23;20183;-83
2021/01/04 01:53:26;;;;;;;11.60;5.65;;;;;;;-143.98;100.00;68091.63;6223698;23;20044;-83
2021/01/04 01:56:04;;;;;;;13.13;5.43;;;;;;;-143.98;100.00;68091.63;6224182;23;20025;-83
2021/01/04 01:59:02;;;;;;;15.27;5.28;;;;;;;-143.98;100.00;68091.63;6220979;23;20029;-83
2021/01/04 02:01:46;;;;;;;9.50;4.57;;;;;;;-143.98;100.00;68091.63;6206726;23;20040;-83
2021/01/04 02:04:49;;;;;;;16.67;5.05;;;;;;;-143.98;100.00;68091.63;6222219;23;20298;-83
2021/01/04 02:07:34;;;;;;;11.30;5.03;;;;;;;-143.98;100.00;68091.63;6131046;23;20081;-83
2021/01/04 02:10:17;;;;;;;10.13;5.00;;;;;;;-143.98;100.00;68091.63;6215314;23;20024;-83
2021/01/04 02:13:03;;;;;;;11.30;5.00;;;;;;;-143.98;100.00;68091.63;6219821;23;20024;-85
2021/01/04 02:15:34;;;;;;;15.27;5.28;;;;;;;-143.98;100.00;68091.63;6221413;23;20109;-85
2021/01/04 02:18:07;;;;;;;13.68;4.97;;;;;;;-143.98;100.00;68091.63;6224219;23;20039;-85
2021/01/04 02:21:11;;;;;;;12.30;4.72;;;;;;;-143.98;100.00;68091.63;6198891;23;20107;-84
2021/01/04 02:24:35;;;;;;;12.57;5.68;;;;;;;-143.98;100.00;68091.63;6222127;23;20086;-85
2021/01/04 02:27:23;;;;;;;13.60;5.47;;;;;;;-143.98;100.00;68091.63;6107162;23;20335;-85
2021/01/04 02:29:49;;;;;;;15.43;5.70;;;;;;;-143.98;100.00;68091.63;6106881;23;20073;-85
2021/01/04 02:32:19;;;;;;;14.50;5.32;;;;;;;-143.98;100.00;68091.63;6106521;23;20030;-85
2021/01/04 02:34:50;;;;;;;13.25;5.07;;;;;;;-143.98;100.00;68091.63;6105242;23;20044;-85
2021/01/04 02:37:18;;;;;;;12.98;5.28;;;;;;;-143.98;100.00;68091.63;6110907;23;20656;-85
2021/01/04 02:39:55;;;;;;;10.85;5.03;;;;;;;-143.98;100.00;68091.63;6227782;23;20108;-85
2021/01/04 02:42:23;;;;;;;10.23;5.32;;;;;;;-143.98;100.00;68091.63;6200554;23;20418;-85
2021/01/04 02:44:51;;;;;;;13.30;5.00;;;;;;;-143.98;100.00;68091.63;6199011;23;20307;-85
2021/01/04 02:47:44;;;;;;;11.40;5.20;;;;;;;-143.98;100.00;68091.63;6196586;23;20053;-85
2021/01/04 02:50:40;;;;;;;13.18;5.18;;;;;;;-143.98;100.00;68091.63;6222379;23;20028;-84
2021/01/04 02:53:35;;;;;;;12.70;4.85;;;;;;;-143.98;100.00;68091.63;6223931;23;20036;-84
2021/01/04 02:56:30;;;;;;;15.98;4.68;;;;;;;-143.98;100.00;68091.63;6224011;23;20024;-82
2021/01/04 02:59:00;;;;;;;15.27;4.95;;;;;;;-143.98;100.00;68091.63;6222433;23;20032;-82
2021/01/04 03:02:06;;;;;;;12.23;4.47;;;;;;;-143.98;100.00;68091.63;6222509;23;20144;-82
2021/01/04 03:04:34;;;;;;;8.82;4.47;;;;;;;-143.98;100.00;68091.63;6223226;23;20024;-82
2021/01/04 03:07:30;;;;;;;13.52;4.78;;;;;;;-143.98;100.00;68091.63;6196790;23;20038;-83
2021/01/04 03:09:58;;;;;;;9.70;3.95;;;;;;;-143.98;100.00;68091.63;6196163;23;20028;-84
2021/01/04 03:12:27;;;;;;;11.15;4.75;;;;;;;-143.98;100.00;68091.63;6222066;23;20024;-84
2021/01/04 03:15:22;;;;;;;13.27;4.68;;;;;;;-143.98;100.00;68091.63;6201497;23;20099;-84
2021/01/04 03:18:17;;;;;;;11.15;4.50;;;;;;;-143.98;100.00;68091.63;6224431;23;20075;-83
2021/01/04 03:20:44;;;;;;;8.85;3.78;;;;;;;-143.98;100.00;68091.63;6196252;23;20040;-82
2021/01/04 03:23:11;;;;;;;10.90;4.30;;;;;;;-143.98;100.00;68091.63;6221503;23;20034;-82
2021/01/04 03:25:53;;;;;;;9.00;4.03;;;;;;;-143.98;100.00;68091.63;6196283;23;20025;-82
2021/01/04 03:28:25;;;;;;;11.27;4.10;;;;;;;-143.98;100.00;68091.63;6221138;23;20024;-82
2021/01/04 03:30:52;;;;;;;15.68;4.03;;;;;;;-143.98;100.00;68091.63;6196176;23;20032;-82
2021/01/04 03:33:19;;;;;;;12.70;4.72;;;;;;;-143.98;100.00;68091.63;6196730;23;20029;-82
2021/01/04 03:35:46;;;;;;;10.60;3.85;;;;;;;-143.98;100.00;68091.63;6221038;23;20040;-83
2021/01/04 03:38:13;;;;;;;7.70;3.50;;;;;;;-143.98;100.00;68091.63;6194902;23;20391;-82
2021/01/04 03:40:46;;;;;;;11.45;3.92;;;;;;;-143.98;100.00;68091.63;6197133;23;20028;-82
2021/01/04 03:43:12;;;;;;;8.73;3.60;;;;;;;-143.98;100.00;68091.63;6220625;23;20107;-82
2021/01/04 03:45:38;;;;;;;13.00;3.83;;;;;;;-143.98;100.00;68091.63;6220889;23;20028;-82
2021/01/04 03:48:05;;;;;;;12.02;4.13;;;;;;;-143.98;100.00;68091.63;6220255;23;20034;-82
2021/01/04 03:50:31;;;;;;;8.10;3.42;;;;;;;-143.98;100.00;68091.63;6221261;23;20036;-82
2021/01/04 03:52:58;;;;;;;9.15;3.75;;;;;;;-143.98;100.00;68091.63;6221580;23;20051;-82
2021/01/04 03:55:24;;;;;;;9.05;3.22;;;;;;;-143.98;100.00;68091.63;6221651;23;20051;-82
2021/01/04 03:57:56;;;;;;;10.65;2.90;;;;;;;-143.98;100.00;68091.63;6195315;23;20425;-82
2021/01/04 04:00:23;;;;;;;11.90;3.70;;;;;;;-143.98;100.00;68091.63;6194793;23;20029;-82
2021/01/04 04:02:49;;;;;;;9.80;2.80;;;;;;;-143.98;100.00;68091.63;6193167;23;20386;-82
2021/01/04 04:05:18;;;;;;;6.80;3.03;;;;;;;-143.98;100.00;68091.63;6194658;23;20193;-82
2021/01/04 04:07:45;;;;;;;7.28;3.13;;;;;;;-143.98;100.00;68091.63;6194574;23;20031;-83
2021/01/04 04:10:14;;;;;;;7.25;2.90;;;;;;;-143.98;100.00;68091.63;6219788;23;20029;-82
2021/01/04 04:12:41;;;;;;;10.25;2.72;;;;;;;-143.98;100.00;68091.63;6219589;23;20024;-82
2021/01/04 04:15:10;;;;;;;6.95;2.90;;;;;;;-143.98;100.00;68091.63;6194273;23;20270;-82
2021/01/04 04:17:37;;;;;;;4.97;2.53;;;;;;;-143.98;100.00;68091.63;6195528;23;20024;-81
2021/01/04 04:20:12;;;;;;;4.70;2.38;;;;;;;-143.98;100.00;68091.63;6224111;23;20141;-82
2021/01/04 04:22:55;;;;;;;4.95;2.55;;;;;;;-143.98;100.00;68091.63;6210561;23;20024;-82
2021/01/04 04:25:26;;;;;;;7.43;2.80;;;;;;;-143.98;100.00;68091.63;6205408;23;20088;-82
2021/01/04 04:27:56;;;;;;;7.22;2.60;;;;;;;-143.98;100.00;68091.63;6220447;23;20580;-83
2021/01/04 04:30:26;;;;;;;9.30;2.83;;;;;;;-143.98;100.00;68091.63;6195810;23;20028;-83
2021/01/04 04:32:57;;;;;;;5.70;2.35;;;;;;;-143.98;100.00;68091.63;6196197;23;20029;-82
2021/01/04 04:35:26;;;;;;;7.28;2.80;;;;;;;-143.98;100.00;68091.63;6197082;23;20027;-82
2021/01/04 04:41:46;;;;;;;3.67;2.03;;;;;;;-143.98;100.00;68091.63;6243085;22;20008;-85
2021/01/04 04:44:38;;;;;;;5.25;2.40;;;;;;;-143.98;100.00;68091.63;6241356;22;20024;-85
2021/01/04 04:47:25;;;;;;;3.33;2.03;;;;;;;-143.98;100.00;68091.63;6238151;23;20024;-83
2021/01/04 04:50:16;;;;;;;5.88;1.98;;;;;;;-143.98;100.00;68091.63;6224839;23;20028;-83
2021/01/04 04:53:27;;;;;;;7.25;2.83;;;;;;;-143.98;100.00;68091.63;6238195;23;20020;-84
2021/01/04 04:56:19;;;;;;;8.50;2.58;;;;;;;-143.98;100.00;68091.63;6231837;23;20048;-84
2021/01/04 04:59:00;;;;;;;5.47;2.05;;;;;;;-143.98;100.00;68091.63;6219888;23;20024;-85
2021/01/04 05:01:42;;;;;;;4.75;1.98;;;;;;;-143.98;100.00;68091.63;6221275;23;20060;-84
2021/01/04 05:04:38;;;;;;;6.95;2.08;;;;;;;-143.98;100.00;68091.63;6220448;23;20035;-83
2021/01/04 05:07:29;;;;;;;8.45;1.85;;;;;;;-143.98;100.00;68091.63;6220637;23;20024;-81
2021/01/04 05:10:05;;;;;;;5.03;1.90;;;;;;;-143.98;100.00;68091.63;6195231;23;20035;-82
2021/01/04 05:12:42;;;;;;;6.30;1.85;;;;;;;-143.98;100.00;68091.63;6219049;23;20028;-82
2021/01/04 05:15:29;;;;;;;4.15;2.20;;;;;;;-143.98;100.00;68091.63;6197746;23;20028;-82
2021/01/04 05:18:18;;;;;;;5.28;1.77;;;;;;;-143.98;100.00;68091.63;6221358;23;20345;-81
2021/01/04 05:21:00;;;;;;;2.90;1.77;;;;;;;-143.98;100.00;68091.63;6219492;23;20035;-81
2021/01/04 05:24:21;;;;;;;7.72;2.83;;;;;;;-143.98;100.00;68091.63;6219317;23;20032;-81
2021/01/04 05:27:23;;;;;;;5.32;1.67;;;;;;;-143.98;100.00;68091.63;6103942;23;20037;-82
2021/01/04 05:30:18;;;;;;;6.53;2.00;;;;;;;-143.98;100.00;68091.63;6218419;23;20039;-82
2021/01/04 05:33:15;;;;;;;11.15;2.03;;;;;;;-143.98;100.00;68091.63;6194221;23;20033;-82
2021/01/04 05:35:43;;;;;;;6.15;1.73;;;;;;;-143.98;100.00;68091.63;6221388;23;20072;-82
2021/01/04 05:38:21;;;;;;;4.30;1.48;;;;;;;-143.98;100.00;68091.63;6219241;23;20024;-81
2021/01/04 05:41:18;;;;;;;2.50;1.60;;;;;;;-143.98;100.00;68091.63;6193596;23;20029;-81
2021/01/04 05:44:00;;;;;;;4.75;1.65;;;;;;;-143.98;100.00;68091.63;6226080;23;20028;-83
2021/01/04 05:47:02;;;;;;;7.40;1.60;;;;;;;-143.98;100.00;68091.63;6225629;23;20033;-82
2021/01/04 05:49:31;;;;;;;4.47;1.60;;;;;;;-143.98;100.00;68091.63;6196392;23;20020;-82
2021/01/04 05:51:57;;;;;;;3.28;1.50;;;;;;;-143.98;100.00;68091.63;6222662;23;20028;-83
2021/01/04 05:54:36;;;;;;;6.82;2.50;;;;;;;-143.98;100.00;68091.63;6224142;23;20025;-82
2021/01/04 05:57:03;;;;;;;4.03;1.65;;;;;;;-143.98;100.00;68091.63;6199556;23;20039;-82
2021/01/04 05:59:30;;;;;;;3.65;1.73;;;;;;;-143.98;100.00;68091.63;6223925;23;20020;-82
2021/01/04 06:02:02;;;;;;;6.32;2.13;;;;;;;-143.98;100.00;68091.63;6196880;23;20032;-82
2021/01/04 06:04:28;;;;;;;4.95;2.03;;;;;;;-143.98;100.00;68091.63;6221665;23;20211;-82
2021/01/04 06:07:06;;;;;;;5.65;2.00;;;;;;;-143.98;100.00;68091.63;6220755;23;20029;-82
2021/01/04 06:09:33;;;;;;;6.07;2.00;;;;;;;-143.98;100.00;68091.63;6220056;23;20028;-82
2021/01/04 06:12:04;;;;;;;2.72;1.48;;;;;;;-143.98;100.00;68091.63;6221059;23;20456;-82
2021/01/04 06:14:36;;;;;;;4.43;1.52;;;;;;;-143.98;100.00;68091.63;6199726;23;20078;-81
2021/01/04 06:17:09;;;;;;;4.70;1.98;;;;;;;-143.98;100.00;68091.63;6222312;23;20025;-83
2021/01/04 06:19:42;;;;;;;6.35;2.50;;;;;;;-143.98;100.00;68091.63;6220289;23;20453;-82
2021/01/04 06:22:13;;;;;;;4.43;1.88;;;;;;;-143.98;100.00;68091.63;6218663;23;20029;-81
2021/01/04 06:25:05;;;;;;;6.22;1.90;;;;;;;-143.98;100.00;68091.63;6212840;23;20055;-83
2021/01/04 06:27:37;;;;;;;6.70;3.33;;;;;;;-143.98;100.00;68091.63;6219082;23;20031;-82
2021/01/04 06:30:34;;;;;;;2.97;1.98;;;;;;;-143.98;100.00;68091.63;6191218;23;20028;-83
2021/01/04 06:33:03;;;;;;;5.15;2.20;;;;;;;-143.98;100.00;68091.63;6192899;23;20025;-83
2021/01/04 06:35:31;;;;;;;2.35;1.70;;;;;;;-143.98;100.00;68091.63;6215752;23;20334;-82
2021/01/04 06:38:15;;;;;;;4.78;1.85;;;;;;;-143.98;100.00;68091.63;6191696;23;20278;-83
2021/01/04 06:40:49;;;;;;;3.83;1.80;;;;;;;-143.98;100.00;68091.63;6218651;23;20032;-81
2021/01/04 06:43:34;;;;;;;3.53;1.98;;;;;;;-143.98;100.00;68091.63;6214872;23;20040;-82
2021/01/04 06:46:27;;;;;;;3.03;2.35;;;;;;;-143.98;100.00;68091.63;6195268;23;20051;-83
2021/01/04 06:48:59;;;;;;;3.88;1.73;;;;;;;-143.98;100.00;68091.63;6215981;23;20031;-83
2021/01/04 06:52:03;;;;;;;2.67;1.70;;;;;;;-143.98;100.00;68091.63;6190995;23;20035;-83
2021/01/04 06:55:00;;;;;;;2.22;1.65;;;;;;;-143.98;100.00;68091.63;6215812;23;20028;-82
2021/01/04 06:57:51;;;;;;;2.20;1.92;;;;;;;-143.98;100.00;68091.63;6140799;23;20394;-83
2021/01/04 07:00:43;;;;;;;2.80;1.73;;;;;;;-143.98;100.00;68091.63;6216999;23;20024;-83
2021/01/04 07:03:34;;;;;;;2.70;1.60;;;;;;;-143.98;100.00;68091.63;6189450;23;20028;-82
2021/01/04 07:06:31;;;;;;;3.28;1.85;;;;;;;-143.98;100.00;68091.63;6215575;23;20570;-82
2021/01/04 07:09:34;;;;;;;2.58;2.30;;;;;;;-143.98;100.00;68091.63;6213982;23;20231;-83
2021/01/04 07:12:17;;;;;;;2.78;1.90;;;;;;;-143.98;100.00;68091.63;6214756;23;20029;-82
2021/01/04 07:15:03;;;;;;;3.30;2.10;;;;;;;-143.98;100.00;68091.63;6217292;23;20025;-83
2021/01/04 07:18:02;;;;;;;1.98;1.52;;;;;;;-143.98;100.00;68091.63;6228463;22;20145;-82
2021/01/04 07:20:34;;;;;;;2.50;1.80;;;;;;;-143.98;100.00;68091.63;6229292;23;20031;-83
2021/01/04 07:23:20;;;;;;;3.63;1.65;;;;;;;-143.98;100.00;68091.63;6217902;23;20035;-82
2021/01/04 07:26:02;;;;;;;2.83;1.52;;;;;;;-143.98;100.00;68091.63;6192639;23;20104;-82
2021/01/04 07:28:44;;;;;;;2.55;1.52;;;;;;;-143.98;100.00;68091.63;6191615;23;20049;-82
2021/01/04 07:31:43;;;;;;;2.88;1.50;;;;;;;-143.98;100.00;68091.63;6191675;23;20109;-83
2021/01/04 07:34:20;;;;;;;2.33;1.80;;;;;;;-143.98;100.00;68091.63;6190733;23;20047;-83
2021/01/04 07:36:46;;;;;;;3.17;1.70;;;;;;;-143.98;100.00;68091.63;6215479;23;20029;-84
2021/01/04 07:39:31;;;;;;;2.35;1.80;;;;;;;-143.98;100.00;68091.63;6215060;23;20020;-82
2021/01/04 07:42:28;;;;;;;3.78;1.80;;;;;;;-143.98;100.00;68091.63;6214913;23;20042;-83
2021/01/04 07:45:23;;;;;;;4.00;1.80;;;;;;;-143.98;100.00;68091.63;6217641;23;20082;-83
2021/01/04 07:48:20;;;;;;;3.70;1.75;;;;;;;-143.98;100.00;68091.63;6217060;23;20020;-83
2021/01/04 07:51:08;;;;;;;;;;;;;;;-143.98;100.00;68091.63;6215469;23;20321;-82
2021/01/04 07:54:00;;;;;;;2.50;1.90;;;;;;;-143.98;100.00;68091.63;6214615;23;20088;-83
2021/01/04 07:56:58;;;;;;;1.90;1.75;;;;;;;-143.98;100.00;68091.63;6189289;23;20029;-82
2021/01/04 08:00:05;;;;;;;2.28;1.83;;;;;;;-143.98;100.00;68091.63;6188770;23;20086;-81
2021/01/04 08:02:40;;;;;;;2.33;1.48;;;;;;;-143.98;100.00;68091.63;6098685;23;20053;-82
2021/01/04 08:05:27;;;;;;;4.65;1.55;;;;;;;-143.98;100.00;68091.63;6124604;23;20372;-82
2021/01/04 08:08:46;;;;;;;4.43;2.22;;;;;;;-143.98;100.00;68091.63;6179581;23;20372;-85
2021/01/04 08:11:44;;;;;;;4.13;1.60;;;;;;;-143.98;100.00;68091.63;6215687;23;20100;-83
2021/01/04 08:15:00;;;;;;;4.80;2.15;;;;;;;-143.98;100.00;68091.63;6193176;23;20029;-83
2021/01/04 08:17:44;;;;;;;4.60;1.73;;;;;;;-143.98;100.00;68091.63;6216345;23;20033;-82
2021/01/04 08:20:11;;;;;;;3.40;2.15;;;;;;;-143.98;100.00;68091.63;6190531;23;20039;-83
2021/01/04 08:22:46;;;;;;;2.50;1.70;;;;;;;-143.98;100.00;68091.63;6216149;23;20115;-83
2021/01/04 08:25:25;;;;;;;3.30;1.85;;;;;;;-143.98;100.00;68091.63;6220459;23;20025;-83
2021/01/04 08:28:25;;;;;;;3.08;1.88;;;;;;;-143.98;100.00;68091.63;6207357;23;20008;-83
2021/01/04 08:31:00;;;;;;;4.55;2.00;;;;;;;-143.98;100.00;68091.63;6233200;22;20056;-83
2021/01/04 08:33:38;;;;;;;2.83;1.73;;;;;;;-143.98;100.00;68091.63;6200512;23;20357;-83
2021/01/04 08:36:45;;;;;;;3.78;1.90;;;;;;;-143.98;100.00;68091.63;6218181;23;20456;-83
2021/01/04 08:39:31;;;;;;;3.72;1.90;;;;;;;-143.98;100.00;68091.63;6193817;23;20024;-84
2021/01/04 08:42:12;;;;;;;2.53;2.22;;;;;;;-143.98;100.00;68091.63;6230431;22;20039;-85
2021/01/04 08:44:38;;;;;;;3.50;2.10;;;;;;;-143.98;100.00;68091.63;6230224;22;20091;-83
2021/01/04 08:47:10;;;;;;;3.42;1.80;;;;;;;-143.98;100.00;68091.63;6216611;23;20036;-82
2021/01/04 08:49:43;;;;;;;3.92;2.22;;;;;;;-143.98;100.00;68091.63;6191566;23;20460;-83
2021/01/04 08:52:19;;;;;;;4.35;2.00;;;;;;;-143.98;100.00;68091.63;6215237;23;20108;-83
2021/01/04 08:54:59;;;;;;;3.60;2.13;;;;;;;-143.98;100.00;68091.63;6190156;23;20025;-83
2021/01/04 08:57:43;;;;;;;3.55;1.90;;;;;;;-143.98;100.00;68091.63;6215311;23;20334;-83
2021/01/04 09:00:27;;;;;;;2.38;1.58;;;;;;;-143.98;100.00;68091.63;6216397;23;20035;-82
2021/01/04 09:02:59;;;;;;;2.20;1.63;;;;;;;-143.98;100.00;68091.63;6189338;23;20065;-83
2021/01/04 09:05:38;;;;;;;3.05;1.75;;;;;;;-143.98;100.00;68091.63;6216912;23;20047;-83
2021/01/04 09:08:07;;;;;;;2.85;1.77;;;;;;;-143.98;100.00;68091.63;6190172;23;20021;-84
2021/01/04 09:10:44;;;;;;;3.13;1.65;;;;;;;-143.98;100.00;68091.63;6194211;23;20295;-82
2021/01/04 09:13:22;;;;;;;4.93;1.98;;;;;;;-143.98;100.00;68091.63;6218506;23;20023;-84
2021/01/04 09:15:55;;;;;;;2.95;2.10;;;;;;;-143.98;100.00;68091.63;6217972;23;20039;-82
2021/01/04 09:18:42;;;;;;;2.65;2.03;;;;;;;-143.98;100.00;68091.63;6191952;23;20052;-83
2021/01/04 09:21:31;;;;;;;3.72;1.60;;;;;;;-143.98;100.00;68091.63;6215736;23;20099;-83
2021/01/04 09:24:24;;;;;;;2.95;1.55;;;;;;;-143.98;100.00;68091.63;6215608;23;20100;-83
2021/01/04 09:27:04;;;;;;;2.08;1.38;;;;;;;-143.98;100.00;68091.63;6217688;23;20248;-82
2021/01/04 09:29:37;;;;;;;3.33;1.60;;;;;;;-143.98;100.00;68091.63;6192100;23;20107;-82
2021/01/04 09:32:08;;;;;;;1.60;1.50;;;;;;;-143.98;100.00;68091.63;6217257;23;20075;-84
2021/01/04 09:34:35;;;;;;;3.35;1.55;;;;;;;-143.98;100.00;68091.63;6192920;23;20111;-83
2021/01/04 09:37:22;;;;;;;2.40;1.42;;;;;;;-143.98;100.00;68091.63;6193431;23;20043;-83
2021/01/04 09:40:00;;;;;;;3.50;1.40;;;;;;;-143.98;100.00;68091.63;6217387;23;20313;-82
2021/01/04 09:42:29;;;;;;;5.03;1.30;;;;;;;-143.98;100.00;68091.63;6191407;23;20029;-84
2021/01/04 09:45:07;;;;;;;1.60;1.25;;;;;;;-143.98;100.00;68091.63;6192279;23;20574;-83
2021/01/04 09:47:38;;;;;;;3.40;1.70;;;;;;;-143.98;100.00;68091.63;6191521;23;20083;-83
2021/01/04 09:50:12;;;;;;;3.95;1.52;;;;;;;-143.98;100.00;68091.63;6215870;23;20383;-82
2021/01/04 09:52:51;;;;;;;4.22;1.67;;;;;;;-143.98;100.00;68091.63;6215116;23;20063;-83
2021/01/04 09:55:29;;;;;;;1.83;1.38;;;;;;;-143.98;100.00;68091.63;6217642;23;20029;-84
2021/01/04 09:57:59;;;;;;;2.13;1.25;;;;;;;-143.98;100.00;68091.63;6216819;23;20024;-83
2021/01/04 10:00:35;;;;;;;4.60;1.67;;;;;;;-143.98;100.00;68091.63;6218145;23;20056;-83
2021/01/04 10:03:17;;;;;;;1.30;1.20;;;;;;;-143.98;100.00;68091.63;6193047;23;20338;-83
2021/01/04 10:05:45;;;;;;;1.55;1.35;;;;;;;-143.98;100.00;68091.63;6216045;23;20024;-83
2021/01/04 10:08:16;;;;;;;3.00;1.15;;;;;;;-143.98;100.00;68091.63;6192261;23;20032;-83
2021/01/04 10:11:04;;;;;;;7.70;1.70;;;;;;;-143.98;100.00;68091.63;6195671;23;20058;-82
2021/01/04 10:13:35;;;;;;;3.33;1.80;;;;;;;-143.98;100.00;68091.63;6232206;22;20048;-83
2021/01/04 10:16:05;;;;;;;2.40;1.27;;;;;;;-143.98;100.00;68091.63;6224134;23;20376;-83
2021/01/04 10:18:47;;;;;;;1.88;1.08;;;;;;;-143.98;100.00;68091.63;6192324;23;20044;-83
2021/01/04 10:21:23;;;;;;;1.67;1.27;;;;;;;-143.98;100.00;68091.63;6216184;23;20086;-83
2021/01/04 10:23:55;;;;;;;1.92;1.33;;;;;;;-143.98;100.00;68091.63;6191690;23;20303;-82
2021/01/04 10:26:43;;;;;;;2.15;1.20;;;;;;;-143.98;100.00;68091.63;6194781;23;20088;-83
2021/01/04 10:29:21;;;;;;;3.58;1.23;;;;;;;-143.98;100.00;68091.63;6215745;23;20032;-82
2021/01/04 10:31:51;;;;;;;3.25;1.70;;;;;;;-143.98;100.00;68091.63;6216026;23;20084;-83
2021/01/04 10:34:21;;;;;;;2.47;1.40;;;;;;;-143.98;100.00;68091.63;6193181;23;20086;-84
2021/01/04 10:37:01;;;;;;;3.97;1.67;;;;;;;-143.98;100.00;68091.63;6188998;23;20032;-83
2021/01/04 10:39:43;;;;;;;3.40;1.05;;;;;;;-143.98;100.00;68091.63;6194784;23;20020;-82
2021/01/04 10:42:25;;;;;;;5.10;1.48;;;;;;;-143.98;100.00;68091.63;6213520;23;20128;-83
2021/01/04 10:45:03;;;;;;;3.80;1.80;;;;;;;-143.98;100.00;68091.63;6216889;23;20028;-83
2021/01/04 10:47:30;;;;;;;;;;;;;;;-143.98;100.00;68091.63;6193024;23;20108;-83
2021/01/04 10:50:15;;;;;;;3.10;1.60;;;;;;;-143.98;100.00;68091.63;6202053;23;19942;-83
2021/01/04 10:52:52;;;;;;;4.00;1.80;;;;;;;-143.98;100.00;68091.63;6225455;23;20318;-83
2021/01/04 10:55:23;;;;;;;2.55;1.38;;;;;;;-143.98;100.00;68091.63;6204628;23;20012;-86
2021/01/04 10:57:53;;;;;;;6.40;1.85;;;;;;;-143.98;100.00;68091.63;6224406;23;20047;-83
2021/01/04 11:00:28;;;;;;;3.83;1.83;;;;;;;-143.98;100.00;68091.63;6220983;23;20029;-82
2021/01/04 11:02:56;;;;;;;4.18;2.13;;;;;;;-143.98;100.00;68091.63;6198842;23;20017;-82
2021/01/04 11:05:49;;;;;;;2.78;1.60;;;;;;;-143.98;100.00;68091.63;6216397;23;20044;-83
2021/01/04 11:08:26;;;;;;;4.10;1.85;;;;;;;-143.98;100.00;68091.63;6216509;23;20024;-83
2021/01/04 11:11:34;;;;;;;3.45;1.70;;;;;;;-143.98;100.00;68091.63;6193514;23;20203;-84
2021/01/04 11:14:22;;;;;;;5.13;1.75;;;;;;;-143.98;100.00;68091.63;6216376;23;20072;-84
2021/01/04 11:17:31;;;;;;;3.72;1.90;;;;;;;-143.98;100.00;68091.63;6194077;23;20287;-83
2021/01/04 11:20:05;;;;;;;4.72;2.15;;;;;;;-143.98;100.00;68091.63;6214181;23;20024;-84
2021/01/04 11:22:32;;;;;;;6.10;2.13;;;;;;;-143.98;100.00;68091.63;6195773;23;20052;-85
2021/01/04 11:25:00;;;;;;;3.05;1.67;;;;;;;-143.98;100.00;68091.63;6217564;23;20070;-84
2021/01/04 11:27:30;;;;;;;5.07;1.92;;;;;;;-143.98;100.00;68091.63;6193924;23;20028;-84
2021/01/04 11:29:58;;;;;;;5.18;2.20;;;;;;;-143.98;100.00;68091.63;6217778;23;20024;-85
2021/01/04 11:32:26;;;;;;;6.75;2.47;;;;;;;-143.98;100.00;68091.63;6190034;23;20040;-85
2021/01/04 11:35:06;;;;;;;9.55;5.15;;;;;;;-143.98;100.00;68091.63;6188881;23;20232;-84
2021/01/04 11:37:49;;;;;;;;;;;;;;;;;;;;;
2021/01/04 11:40:31;;;;;;;;;;;;;;;;;;;;;
2021/01/04 11:43:06;;;;;;;2.88;2.10;;;;;;;-143.98;100.00;68091.63;6215856;23;20125;-86
2021/01/04 11:57:16;;;;;;;4.03;2.25;;;;;;;-143.98;100.00;68091.63;6025267;23;20050;-83
2021/01/04 12:13:50;;;;;;;3.72;2.22;;;;;;;-143.98;100.00;68091.63;6228691;22;20258;-83
2021/01/04 13:36:13;;;;;;;1.95;1.48;;;;;;;-143.98;100.00;68091.63;6311052;22;20029;-87
2021/01/04 13:39:03;;;;;;;;;;;;;;;-143.98;100.00;68091.63;6210340;23;20024;-86
2021/01/04 13:41:30;;;;;;;3.13;1.23;;;;;;;-143.98;100.00;68091.63;6223148;23;20018;-85
2021/01/04 13:43:57;;;;;;;1.88;1.30;;;;;;;-143.98;100.00;68091.63;6220203;23;20115;-86
2021/01/04 13:46:31;;;;;;;1.60;1.23;;;;;;;-143.98;100.00;68091.63;6198552;23;20055;-92
2021/01/04 13:49:22;;;;;;;1.73;0.85;;;;;;;-143.98;100.00;68091.63;6197347;23;20444;-87
2021/01/04 13:52:25;;;;;;;2.00;1.30;;;;;;;-143.98;100.00;68091.63;6200972;23;20046;-85
2021/01/04 13:55:20;;;;;;;2.97;1.30;;;;;;;-143.98;100.00;68091.63;6221314;23;20027;-85
2021/01/04 14:07:27;;;;;;;2.85;1.25;;;;;;;-143.98;100.00;68091.63;6271594;22;20019;-87
2021/01/04 14:11:22;;;;;;;3.05;1.40;;;;;;;-143.98;100.00;68091.63;6240524;22;20031;-87
2021/01/04 14:14:36;;;;;;;3.15;1.38;;;;;;;-143.98;100.00;68091.63;6274314;22;20027;-86